Time;durP1;ratioP1;P1;durP2;ratioP2;P2;SDS_P1;SDS_P2;PMS_P1;PMS_P2;Temp;Humidity;BMP_temperature;BMP_pressure;BME280_temperature;BME280_humidity;BME280_pressure;Samples;Min_cycle;Max_cycle;Signal;HPM_P1;HPM_P2
2022/07/14 00:00:44;;;;;;;;;15.25;9.50;;;;;;;;5068161;28;45429;-85
2022/07/14 00:03:09;;;;;;;;;13.00;12.25;;;;;;;;5063253;28;46482;-85
2022/07/14 00:05:35;;;;;;;;;14.00;12.25;;;;;;;;5063592;28;45395;-85
2022/07/14 00:08:00;;;;;;;;;12.25;9.50;;;;;;;;5071342;28;45330;-85
2022/07/14 00:10:26;;;;;;;;;9.25;8.50;;;;;;;;5074474;28;45369;-85
2022/07/14 00:12:51;;;;;;;;;10.75;10.75;;;;;;;;5071699;28;45387;-85
2022/07/14 00:15:16;;;;;;;;;12.00;10.75;;;;;;;;5069896;28;45526;-86
2022/07/14 00:17:41;;;;;;;;;10.25;10.25;;;;;;;;5071377;28;45288;-86
2022/07/14 00:20:07;;;;;;;;;12.00;8.25;;;;;;;;5076431;28;45429;-85
2022/07/14 00:22:32;;;;;;;;;8.00;8.00;;;;;;;;5075302;28;45459;-85
2022/07/14 00:24:57;;;;;;;;;10.75;10.00;;;;;;;;5072765;28;47367;-85
2022/07/14 00:27:23;;;;;;;;;9.00;9.00;;;;;;;;5063802;28;45272;-84
2022/07/14 00:29:48;;;;;;;;;8.00;8.00;;;;;;;;5069439;28;45620;-83
2022/07/14 00:32:13;;;;;;;;;8.25;7.25;;;;;;;;5064737;27;45414;-85
2022/07/14 00:34:38;;;;;;;;;7.00;7.00;;;;;;;;5074502;27;46661;-86
2022/07/14 00:37:04;;;;;;;;;6.00;6.00;;;;;;;;5069295;28;45373;-86
2022/07/14 00:39:54;;;;;;;;;7.00;7.00;;;;;;;;5072014;28;45357;-86
2022/07/14 00:42:24;;;;;;;;;5.75;5.75;;;;;;;;5071267;28;45810;-85
2022/07/14 00:44:49;;;;;;;;;14.00;12.50;;;;;;;;5069375;28;45486;-85
2022/07/14 00:47:14;;;;;;;;;8.75;8.50;;;;;;;;5074140;28;45240;-85
2022/07/14 00:49:40;;;;;;;;;13.00;11.00;;;;;;;;5069798;28;45235;-85
2022/07/14 00:52:05;;;;;;;;;13.50;11.50;;;;;;;;5064168;28;45420;-85
2022/07/14 00:54:30;;;;;;;;;11.50;10.00;;;;;;;;5071103;28;45520;-84
2022/07/14 00:56:56;;;;;;;;;12.75;11.50;;;;;;;;5067697;27;45449;-84
2022/07/14 00:59:21;;;;;;;;;9.75;9.75;;;;;;;;5075302;28;45303;-86
2022/07/14 01:01:46;;;;;;;;;9.00;8.25;;;;;;;;5064556;28;45537;-86
2022/07/14 01:04:11;;;;;;;;;11.00;10.25;;;;;;;;5071864;28;46218;-85
2022/07/14 01:06:36;;;;;;;;;10.50;10.25;;;;;;;;5069676;28;45414;-84
2022/07/14 01:09:02;;;;;;;;;11.75;9.50;;;;;;;;5073815;28;45498;-84
2022/07/14 01:11:28;;;;;;;;;11.33;8.67;;;;;;;;5072555;28;45494;-82
2022/07/14 01:13:53;;;;;;;;;9.25;8.25;;;;;;;;5073951;28;48241;-85
2022/07/14 01:16:18;;;;;;;;;10.25;9.50;;;;;;;;5069845;28;45385;-85
2022/07/14 01:18:43;;;;;;;;;14.25;9.25;;;;;;;;5077886;27;45330;-82
2022/07/14 01:21:09;;;;;;;;;6.50;6.50;;;;;;;;5070227;28;45365;-85
2022/07/14 01:23:34;;;;;;;;;6.75;6.50;;;;;;;;5077977;28;45403;-84
2022/07/14 01:26:00;;;;;;;;;6.50;6.50;;;;;;;;5061368;28;45386;-84
2022/07/14 01:28:25;;;;;;;;;7.00;7.00;;;;;;;;5063541;28;45288;-82
2022/07/14 01:30:50;;;;;;;;;9.25;7.25;;;;;;;;5065273;28;45355;-83
2022/07/14 01:33:15;;;;;;;;;7.00;7.00;;;;;;;;5064761;28;45410;-82
2022/07/14 01:35:40;;;;;;;;;8.75;8.00;;;;;;;;5067910;28;45227;-83
2022/07/14 01:38:06;;;;;;;;;9.67;8.00;;;;;;;;5066791;28;45373;-83
2022/07/14 01:40:31;;;;;;;;;6.00;6.00;;;;;;;;5068474;28;45783;-84
2022/07/14 01:42:57;;;;;;;;;9.00;8.00;;;;;;;;5071802;28;47308;-83
2022/07/14 01:45:22;;;;;;;;;8.00;6.33;;;;;;;;5068441;28;45340;-84
2022/07/14 01:47:47;;;;;;;;;6.25;6.25;;;;;;;;5075314;28;45658;-84
2022/07/14 01:50:13;;;;;;;;;4.25;4.25;;;;;;;;5067195;28;45436;-84
2022/07/14 01:52:38;;;;;;;;;4.67;4.67;;;;;;;;5068971;28;45295;-84
2022/07/14 01:55:03;;;;;;;;;8.00;8.00;;;;;;;;5070781;28;45268;-84
2022/07/14 01:57:28;;;;;;;;;7.00;6.00;;;;;;;;5067289;28;45480;-84
2022/07/14 01:59:54;;;;;;;;;7.50;5.75;;;;;;;;5070956;28;45459;-83
2022/07/14 02:02:19;;;;;;;;;8.00;8.00;;;;;;;;5060653;28;46485;-84
2022/07/14 02:04:44;;;;;;;;;10.00;6.00;;;;;;;;5064880;28;45358;-83
2022/07/14 02:07:09;;;;;;;;;6.00;6.00;;;;;;;;5078882;28;45341;-84
2022/07/14 02:12:20;;;;;;;;;10.00;8.00;;;;;;;;5060485;28;45307;-83
2022/07/14 02:14:45;;;;;;;;;18.33;15.00;;;;;;;;5069491;28;45307;-84
2022/07/14 02:17:11;;;;;;;;;42.67;35.33;;;;;;;;5062942;28;45271;-84
2022/07/14 02:19:36;;;;;;;;;54.33;43.33;;;;;;;;5072052;28;45499;-83
2022/07/14 02:22:02;;;;;;;;;73.50;57.25;;;;;;;;5075259;28;48274;-83
2022/07/14 02:24:27;;;;;;;;;87.50;77.50;;;;;;;;5080138;27;45216;-84
2022/07/14 02:26:52;;;;;;;;;77.25;68.00;;;;;;;;5072024;27;45240;-83
2022/07/14 02:29:18;;;;;;;;;76.75;61.75;;;;;;;;5067376;28;45257;-83
2022/07/14 02:31:44;;;;;;;;;71.50;58.75;;;;;;;;5069414;28;45466;-83
2022/07/14 02:34:10;;;;;;;;;63.75;51.75;;;;;;;;5072899;28;46673;-84
2022/07/14 02:36:35;;;;;;;;;64.00;49.25;;;;;;;;5069230;28;45422;-84
2022/07/14 02:39:00;;;;;;;;;62.25;48.00;;;;;;;;5076158;28;45616;-85
2022/07/14 02:41:26;;;;;;;;;58.67;45.67;;;;;;;;5072033;28;45302;-84
2022/07/14 02:43:51;;;;;;;;;46.67;38.00;;;;;;;;5075094;27;45555;-84
2022/07/14 02:46:16;;;;;;;;;47.33;36.00;;;;;;;;5069002;28;45291;-83
2022/07/14 02:48:41;;;;;;;;;45.00;35.00;;;;;;;;5067148;28;45238;-83
2022/07/14 02:51:07;;;;;;;;;38.00;31.00;;;;;;;;5064437;28;45281;-84
2022/07/14 02:53:34;;;;;;;;;30.00;26.67;;;;;;;;5063755;28;45450;-83
2022/07/14 02:55:59;;;;;;;;;33.33;30.00;;;;;;;;5065339;28;46021;-83
2022/07/14 02:58:25;;;;;;;;;25.00;20.67;;;;;;;;5063646;28;45368;-85
2022/07/14 03:00:51;;;;;;;;;14.33;7.00;;;;;;;;5061389;28;45300;-86
2022/07/14 03:03:16;;;;;;;;;11.33;11.33;;;;;;;;5066341;28;45344;-85
2022/07/14 03:05:42;;;;;;;;;13.00;12.00;;;;;;;;5065128;28;45477;-84
2022/07/14 03:08:08;;;;;;;;;13.33;11.00;;;;;;;;5076019;27;45728;-83
2022/07/14 03:10:34;;;;;;;;;12.00;12.00;;;;;;;;5066005;28;45335;-84
2022/07/14 03:12:59;;;;;;;;;6.67;6.33;;;;;;;;5072991;28;45314;-84
2022/07/14 03:15:25;;;;;;;;;6.00;6.00;;;;;;;;5072440;28;45416;-83
2022/07/14 03:17:50;;;;;;;;;12.00;9.33;;;;;;;;5075613;28;45310;-83
2022/07/14 03:20:16;;;;;;;;;9.67;8.67;;;;;;;;5066341;28;45445;-84
2022/07/14 03:22:41;;;;;;;;;8.00;7.00;;;;;;;;5066152;28;45216;-83
2022/07/14 03:25:07;;;;;;;;;9.33;9.33;;;;;;;;5072319;27;45320;-83
2022/07/14 03:27:35;;;;;;;;;10.00;7.67;;;;;;;;5066915;28;45206;-83
2022/07/14 03:30:01;;;;;;;;;6.33;6.33;;;;;;;;5067140;28;45437;-83
2022/07/14 03:32:26;;;;;;;;;8.67;8.00;;;;;;;;5070034;28;45329;-83
2022/07/14 03:34:51;;;;;;;;;8.67;7.00;;;;;;;;5071448;28;45458;-84
2022/07/14 03:37:16;;;;;;;;;9.00;7.00;;;;;;;;5075549;27;45491;-84
2022/07/14 03:39:41;;;;;;;;;7.00;7.00;;;;;;;;5079817;27;45426;-83
2022/07/14 03:42:07;;;;;;;;;9.00;9.00;;;;;;;;5073135;28;45303;-85
2022/07/14 03:44:32;;;;;;;;;11.00;11.00;;;;;;;;5069847;28;45261;-85
2022/07/14 03:46:57;;;;;;;;;18.00;15.67;;;;;;;;5062793;28;46722;-84
2022/07/14 03:49:22;;;;;;;;;24.33;20.00;;;;;;;;5072048;28;45452;-83
2022/07/14 03:51:47;;;;;;;;;31.33;27.00;;;;;;;;5063761;27;45157;-85
2022/07/14 03:54:13;;;;;;;;;32.33;30.00;;;;;;;;5061767;28;45506;-83
2022/07/14 03:56:38;;;;;;;;;36.67;30.67;;;;;;;;5067488;28;45456;-84
2022/07/14 03:59:04;;;;;;;;;40.67;32.33;;;;;;;;5062699;28;46294;-84
2022/07/14 04:01:29;;;;;;;;;32.33;30.00;;;;;;;;5066115;28;45973;-84
2022/07/14 04:03:54;;;;;;;;;34.67;27.33;;;;;;;;5067173;28;45296;-84
2022/07/14 04:06:20;;;;;;;;;28.00;25.00;;;;;;;;5069535;28;46497;-84
2022/07/14 04:08:46;;;;;;;;;23.33;20.33;;;;;;;;5069061;28;47183;-84
2022/07/14 04:11:11;;;;;;;;;17.67;16.00;;;;;;;;5069731;28;45351;-84
2022/07/14 04:13:36;;;;;;;;;13.33;13.33;;;;;;;;5074153;28;45414;-84
2022/07/14 04:16:02;;;;;;;;;11.33;11.33;;;;;;;;5070782;28;45355;-85
2022/07/14 04:18:28;;;;;;;;;10.67;10.67;;;;;;;;5075968;28;45619;-83
2022/07/14 04:20:54;;;;;;;;;9.67;9.67;;;;;;;;5070114;28;45303;-84
2022/07/14 04:23:19;;;;;;;;;10.00;8.00;;;;;;;;5064897;28;45296;-84
2022/07/14 04:25:45;;;;;;;;;9.33;8.33;;;;;;;;5068733;28;45521;-84
2022/07/14 04:28:10;;;;;;;;;11.00;9.00;;;;;;;;5068678;28;45252;-83
2022/07/14 04:30:35;;;;;;;;;9.33;8.67;;;;;;;;5065081;28;45724;-83
2022/07/14 04:33:00;;;;;;;;;10.00;9.00;;;;;;;;5075197;28;45606;-84
2022/07/14 04:35:25;;;;;;;;;8.67;8.67;;;;;;;;5066167;28;45484;-84
2022/07/14 04:37:51;;;;;;;;;8.00;8.00;;;;;;;;5078800;28;47974;-84
2022/07/14 04:40:16;;;;;;;;;8.67;7.67;;;;;;;;5070672;28;45358;-83
2022/07/14 04:42:41;;;;;;;;;7.00;7.00;;;;;;;;5079047;28;45664;-83
2022/07/14 04:45:07;;;;;;;;;9.67;9.67;;;;;;;;5064524;28;45422;-84
2022/07/14 04:47:32;;;;;;;;;7.67;7.67;;;;;;;;5064978;28;45455;-83
2022/07/14 04:52:48;;;;;;;;;7.67;6.67;;;;;;;;5065491;28;45295;-83
2022/07/14 04:55:13;;;;;;;;;11.67;10.00;;;;;;;;5071197;28;46168;-84
2022/07/14 04:57:39;;;;;;;;;9.00;9.00;;;;;;;;5067370;28;45804;-83
2022/07/14 05:00:04;;;;;;;;;11.00;9.00;;;;;;;;5065821;28;45441;-83
2022/07/14 05:02:29;;;;;;;;;11.33;11.00;;;;;;;;5070574;28;45556;-83
2022/07/14 05:04:55;;;;;;;;;10.67;10.67;;;;;;;;5067066;28;45436;-85
2022/07/14 05:07:20;;;;;;;;;8.00;8.00;;;;;;;;5073865;28;46652;-84
2022/07/14 05:09:45;;;;;;;;;7.00;7.00;;;;;;;;5072645;28;45284;-85
2022/07/14 05:12:13;;;;;;;;;7.33;7.33;;;;;;;;5075591;28;45257;-84
2022/07/14 05:14:38;;;;;;;;;12.00;10.67;;;;;;;;5068817;28;45363;-84
2022/07/14 05:17:03;;;;;;;;;7.67;7.67;;;;;;;;5061861;28;46183;-83
2022/07/14 05:19:29;;;;;;;;;10.67;9.67;;;;;;;;5070643;28;45331;-83
2022/07/14 05:21:54;;;;;;;;;9.00;9.00;;;;;;;;5080125;28;45251;-89
2022/07/14 05:24:19;;;;;;;;;10.00;10.00;;;;;;;;5068369;28;45406;-85
2022/07/14 05:26:44;;;;;;;;;9.33;9.33;;;;;;;;5062013;28;45718;-86
2022/07/14 05:29:10;;;;;;;;;9.00;9.00;;;;;;;;5073954;27;45225;-83
2022/07/14 05:31:35;;;;;;;;;10.00;8.67;;;;;;;;5060880;27;45526;-84
2022/07/14 05:34:00;;;;;;;;;8.33;7.67;;;;;;;;5070681;28;45994;-89
2022/07/14 05:36:25;;;;;;;;;9.00;9.00;;;;;;;;5077221;28;45505;-90
2022/07/14 05:38:51;;;;;;;;;8.00;8.00;;;;;;;;5077417;28;45247;-92
2022/07/14 05:41:17;;;;;;;;;9.33;8.67;;;;;;;;5082409;27;45224;-87
2022/07/14 05:43:42;;;;;;;;;10.00;8.00;;;;;;;;5079238;28;45754;-83
2022/07/14 05:46:09;;;;;;;;;10.33;9.00;;;;;;;;5068885;28;46482;-87
2022/07/14 05:48:36;;;;;;;;;10.33;10.33;;;;;;;;5064650;28;45285;-86
2022/07/14 05:51:14;;;;;;;;;10.67;10.67;;;;;;;;5072173;28;45353;-86
2022/07/14 05:53:41;;;;;;;;;11.67;11.00;;;;;;;;5071247;28;45434;-86
2022/07/14 05:56:07;;;;;;;;;9.67;9.67;;;;;;;;5069575;28;45606;-86
2022/07/14 05:58:35;;;;;;;;;9.00;9.00;;;;;;;;5052578;28;45454;-91
2022/07/14 06:01:00;;;;;;;;;9.67;9.67;;;;;;;;5071678;28;45276;-85
2022/07/14 06:03:25;;;;;;;;;11.00;9.33;;;;;;;;5069921;28;45251;-84
2022/07/14 06:05:51;;;;;;;;;11.67;10.00;;;;;;;;5065132;28;45647;-86
2022/07/14 06:08:16;;;;;;;;;12.00;10.33;;;;;;;;5072782;28;45240;-84
2022/07/14 06:10:41;;;;;;;;;9.00;9.00;;;;;;;;5074012;28;45546;-87
2022/07/14 06:13:06;;;;;;;;;10.33;10.00;;;;;;;;5078379;28;45433;-82
2022/07/14 06:15:32;;;;;;;;;11.33;10.67;;;;;;;;5071771;27;46910;-83
2022/07/14 06:17:57;;;;;;;;;10.33;10.00;;;;;;;;5077862;28;45311;-84
2022/07/14 06:20:22;;;;;;;;;11.33;10.00;;;;;;;;5075310;28;45487;-84
2022/07/14 06:22:48;;;;;;;;;9.00;9.00;;;;;;;;5063941;28;45402;-81
2022/07/14 06:25:13;;;;;;;;;14.33;13.00;;;;;;;;5065991;28;45476;-82
2022/07/14 06:27:38;;;;;;;;;11.67;11.67;;;;;;;;5067156;28;45286;-79
2022/07/14 06:30:07;;;;;;;;;14.67;13.00;;;;;;;;5074588;28;45466;-83
2022/07/14 06:32:32;;;;;;;;;11.00;10.00;;;;;;;;5070514;28;45627;-85
2022/07/14 06:34:57;;;;;;;;;12.00;11.33;;;;;;;;5067136;28;46177;-81
2022/07/14 06:37:23;;;;;;;;;15.00;12.00;;;;;;;;5067624;28;45195;-85
2022/07/14 06:39:48;;;;;;;;;12.67;11.00;;;;;;;;5078226;28;45354;-83
2022/07/14 06:42:13;;;;;;;;;10.67;10.67;;;;;;;;5073145;28;45563;-83
2022/07/14 06:44:39;;;;;;;;;13.33;12.67;;;;;;;;5066007;28;45299;-83
2022/07/14 06:47:04;;;;;;;;;11.33;10.33;;;;;;;;5070788;28;45366;-84
2022/07/14 06:49:29;;;;;;;;;11.67;9.67;;;;;;;;5072847;28;45274;-80
2022/07/14 06:51:55;;;;;;;;;11.67;11.33;;;;;;;;5078378;27;45405;-89
2022/07/14 06:54:20;;;;;;;;;12.67;12.67;;;;;;;;5082662;28;46350;-81
2022/07/14 06:56:45;;;;;;;;;10.00;10.00;;;;;;;;5078072;28;45385;-81
2022/07/14 06:59:10;;;;;;;;;10.33;10.33;;;;;;;;5067749;28;45425;-82
2022/07/14 07:01:37;;;;;;;;;10.67;10.67;;;;;;;;5065077;28;45591;-76
2022/07/14 07:04:03;;;;;;;;;14.00;12.00;;;;;;;;5072040;28;46852;-75
2022/07/14 07:06:46;;;;;;;;;16.33;12.00;;;;;;;;5075582;28;45444;-74
2022/07/14 07:09:12;;;;;;;;;12.25;9.00;;;;;;;;5080371;28;45504;-74
2022/07/14 07:11:37;;;;;;;;;10.75;10.75;;;;;;;;5075143;28;45481;-75
2022/07/14 07:14:03;;;;;;;;;12.00;11.75;;;;;;;;5080574;28;46150;-73
2022/07/14 07:16:28;;;;;;;;;10.25;9.25;;;;;;;;5076845;28;45463;-75
2022/07/14 07:18:53;;;;;;;;;9.00;9.00;;;;;;;;5079633;28;45286;-77
2022/07/14 07:21:20;;;;;;;;;14.00;11.50;;;;;;;;5075918;28;45316;-79
2022/07/14 07:23:46;;;;;;;;;8.75;8.75;;;;;;;;5069579;28;45555;-82
2022/07/14 07:26:12;;;;;;;;;15.75;11.50;;;;;;;;5066665;27;45448;-82
2022/07/14 07:28:37;;;;;;;;;12.25;10.50;;;;;;;;5077982;28;45263;-82
2022/07/14 07:31:03;;;;;;;;;13.00;10.75;;;;;;;;5075430;28;46215;-82
2022/07/14 07:33:28;;;;;;;;;11.25;11.25;;;;;;;;5079520;27;45525;-83
2022/07/14 07:35:53;;;;;;;;;11.00;11.00;;;;;;;;5075658;28;45496;-82
2022/07/14 07:38:19;;;;;;;;;10.25;9.25;;;;;;;;5075624;28;45411;-83
2022/07/14 07:40:47;;;;;;;;;10.75;10.75;;;;;;;;5076713;28;45548;-83
2022/07/14 07:43:12;;;;;;;;;9.25;9.25;;;;;;;;5076980;28;45984;-82
2022/07/14 07:45:37;;;;;;;;;6.00;5.75;;;;;;;;5078572;28;45312;-84
2022/07/14 07:48:04;;;;;;;;;11.50;10.75;;;;;;;;5074663;28;45396;-84
2022/07/14 07:50:29;;;;;;;;;12.25;11.25;;;;;;;;5079730;27;45525;-83
2022/07/14 07:52:55;;;;;;;;;11.25;11.25;;;;;;;;5068582;28;46163;-83
2022/07/14 07:55:20;;;;;;;;;11.50;9.00;;;;;;;;5076327;28;45466;-83
2022/07/14 07:57:45;;;;;;;;;10.50;9.75;;;;;;;;5072328;28;45611;-82
2022/07/14 08:00:11;;;;;;;;;10.00;9.75;;;;;;;;5077682;28;45965;-81
2022/07/14 08:02:43;;;;;;;;;11.25;11.00;;;;;;;;5063243;28;46375;-82
2022/07/14 08:05:08;;;;;;;;;13.00;10.00;;;;;;;;5079999;28;45488;-82
2022/07/14 08:07:33;;;;;;;;;8.25;8.25;;;;;;;;5065546;28;45223;-82
2022/07/14 08:09:59;;;;;;;;;9.50;7.75;;;;;;;;5078653;28;45395;-83
2022/07/14 08:12:24;;;;;;;;;9.50;8.00;;;;;;;;5074938;28;45172;-83
2022/07/14 08:14:51;;;;;;;;;11.50;9.75;;;;;;;;5072031;27;45277;-82
2022/07/14 08:17:17;;;;;;;;;11.00;10.25;;;;;;;;5071968;28;45231;-82
2022/07/14 08:19:42;;;;;;;;;11.25;9.25;;;;;;;;5079892;28;45216;-81
2022/07/14 08:22:08;;;;;;;;;8.25;8.25;;;;;;;;5071973;28;45153;-82
2022/07/14 08:24:33;;;;;;;;;9.75;9.25;;;;;;;;5077840;28;45198;-82
2022/07/14 08:26:58;;;;;;;;;6.25;6.25;;;;;;;;5075380;28;45416;-82
2022/07/14 08:29:23;;;;;;;;;9.75;9.75;;;;;;;;5070888;27;45692;-82
2022/07/14 08:31:49;;;;;;;;;8.50;8.25;;;;;;;;5074390;28;45436;-81
2022/07/14 08:34:14;;;;;;;;;8.75;8.25;;;;;;;;5077962;28;45366;-82
2022/07/14 08:36:39;;;;;;;;;11.50;9.75;;;;;;;;5074317;28;45495;-82
2022/07/14 08:39:05;;;;;;;;;9.50;9.50;;;;;;;;5077589;28;45390;-82
2022/07/14 08:41:31;;;;;;;;;7.00;7.00;;;;;;;;5074429;28;46555;-80
2022/07/14 08:43:57;;;;;;;;;9.00;9.00;;;;;;;;5077605;28;45278;-82
2022/07/14 08:46:23;;;;;;;;;13.25;9.75;;;;;;;;5074498;28;45510;-81
2022/07/14 08:48:48;;;;;;;;;5.75;5.75;;;;;;;;5076975;28;45530;-82
2022/07/14 08:51:14;;;;;;;;;9.50;8.00;;;;;;;;5074475;28;45417;-81
2022/07/14 08:53:40;;;;;;;;;7.00;7.00;;;;;;;;5076777;28;45453;-83
2022/07/14 08:56:05;;;;;;;;;7.25;7.25;;;;;;;;5074563;28;45570;-81
2022/07/14 08:58:30;;;;;;;;;8.00;8.00;;;;;;;;5076340;28;45465;-82
2022/07/14 09:00:55;;;;;;;;;8.00;8.00;;;;;;;;5075989;28;45545;-82
2022/07/14 09:03:21;;;;;;;;;6.00;6.00;;;;;;;;5066512;28;45371;-82
2022/07/14 09:05:46;;;;;;;;;6.00;5.50;;;;;;;;5076575;28;45421;-82
2022/07/14 09:08:14;;;;;;;;;5.75;5.75;;;;;;;;5065811;28;45392;-83
2022/07/14 09:10:41;;;;;;;;;8.20;8.00;;;;;;;;5077204;28;45272;-82
2022/07/14 09:13:10;;;;;;;;;5.60;5.60;;;;;;;;5073701;28;45334;-82
2022/07/14 09:15:53;;;;;;;;;6.00;6.00;;;;;;;;5076536;28;45283;-83
2022/07/14 09:18:19;;;;;;;;;6.00;5.80;;;;;;;;5077898;28;45232;-83
2022/07/14 09:20:44;;;;;;;;;6.50;6.50;;;;;;;;5077472;28;46591;-83
2022/07/14 09:23:09;;;;;;;;;4.25;4.25;;;;;;;;5071659;28;45312;-82
2022/07/14 09:25:35;;;;;;;;;5.25;5.25;;;;;;;;5078110;28;45152;-83
2022/07/14 09:28:01;;;;;;;;;6.00;6.00;;;;;;;;5072221;28;45843;-82
2022/07/14 09:30:26;;;;;;;;;7.25;7.25;;;;;;;;5078366;28;45342;-80
2022/07/14 09:32:53;;;;;;;;;5.50;5.50;;;;;;;;5072267;28;45297;-81
2022/07/14 09:35:20;;;;;;;;;6.80;6.00;;;;;;;;5078150;28;45300;-83
2022/07/14 09:37:46;;;;;;;;;5.40;5.40;;;;;;;;5071057;28;45499;-81
2022/07/14 09:40:15;;;;;;;;;5.00;5.00;;;;;;;;5079316;28;45671;-82
2022/07/14 09:42:46;;;;;;;;;6.40;6.00;;;;;;;;5071018;27;45395;-82
2022/07/14 09:45:14;;;;;;;;;6.00;6.00;;;;;;;;5078852;28;45405;-83
2022/07/14 09:48:18;;;;;;;;;6.20;5.40;;;;;;;;5075378;28;47096;-82
2022/07/14 09:50:51;;;;;;;;;4.40;4.40;;;;;;;;4995694;28;47571;-82
2022/07/14 09:53:25;;;;;;;;;5.40;4.60;;;;;;;;4994079;28;45344;-81
2022/07/14 09:56:00;;;;;;;;;4.20;4.20;;;;;;;;5036804;28;45441;-81
2022/07/14 09:58:51;;;;;;;;;4.00;4.00;;;;;;;;5074961;28;45520;-82
2022/07/14 10:01:20;;;;;;;;;4.40;4.40;;;;;;;;5070876;27;45796;-81
2022/07/14 10:03:46;;;;;;;;;4.20;4.20;;;;;;;;5066457;27;45331;-83
2022/07/14 10:06:11;;;;;;;;;5.80;4.00;;;;;;;;5064410;27;45326;-86
2022/07/14 10:08:40;;;;;;;;;3.75;3.75;;;;;;;;5068158;28;45260;-85
2022/07/14 10:11:05;;;;;;;;;3.20;3.20;;;;;;;;5072127;27;46017;-91
2022/07/14 10:13:31;;;;;;;;;4.25;4.25;;;;;;;;5074646;28;44679;-89
2022/07/14 10:15:57;;;;;;;;;3.75;3.75;;;;;;;;5075018;27;44721;-88
2022/07/14 10:18:23;;;;;;;;;4.25;4.25;;;;;;;;5072727;27;45771;-90
2022/07/14 10:20:50;;;;;;;;;5.00;5.00;;;;;;;;5075711;28;45536;-88
2022/07/14 10:23:16;;;;;;;;;4.40;4.40;;;;;;;;5067173;27;45323;-81
2022/07/14 10:25:41;;;;;;;;;3.00;3.00;;;;;;;;5079058;28;45260;-83
2022/07/14 10:28:07;;;;;;;;;1.00;1.00;;;;;;;;5067382;28;45390;-84
2022/07/14 10:30:35;;;;;;;;;9.50;9.50;;;;;;;;5077863;28;45571;-85
2022/07/14 10:33:04;;;;;;;;;3.60;3.60;;;;;;;;5070001;28;45358;-84
2022/07/14 10:35:52;;;;;;;;;4.00;4.00;;;;;;;;5074964;28;45288;-84
2022/07/14 10:38:57;;;;;;;;;5.20;4.00;;;;;;;;5078517;28;45406;-83
2022/07/14 10:41:34;;;;;;;;;3.80;2.40;;;;;;;;5022684;28;45492;-82
2022/07/14 10:44:09;;;;;;;;;6.20;5.00;;;;;;;;5030674;28;45337;-83
2022/07/14 10:46:36;;;;;;;;;3.80;3.80;;;;;;;;5060907;28;44904;-86
2022/07/14 10:49:01;;;;;;;;;4.20;4.20;;;;;;;;5081705;28;45267;-85
2022/07/14 10:51:27;;;;;;;;;5.00;4.00;;;;;;;;5072016;27;48298;-87
2022/07/14 10:53:58;;;;;;;;;5.50;5.50;;;;;;;;5083155;28;45245;-84
2022/07/14 10:56:25;;;;;;;;;6.40;6.40;;;;;;;;5077335;28;45362;-81
2022/07/14 10:59:10;;;;;;;;;7.40;7.40;;;;;;;;5073051;27;45221;-82
2022/07/14 11:01:35;;;;;;;;;9.80;7.80;;;;;;;;5078437;28;46279;-88
2022/07/14 11:04:00;;;;;;;;;8.25;6.25;;;;;;;;5074098;28;45225;-83
2022/07/14 11:06:27;;;;;;;;;6.00;5.00;;;;;;;;5078615;28;45545;-82
2022/07/14 11:09:11;;;;;;;;;5.00;5.00;;;;;;;;5074881;28;45568;-82
2022/07/14 11:11:37;;;;;;;;;4.20;4.20;;;;;;;;5075338;28;45396;-82
2022/07/14 11:14:13;;;;;;;;;4.25;4.25;;;;;;;;5076859;28;45252;-86
2022/07/14 11:16:45;;;;;;;;;5.60;5.60;;;;;;;;5071512;28;45240;-83
2022/07/14 11:19:23;;;;;;;;;3.40;3.40;;;;;;;;5069068;28;45227;-84
2022/07/14 11:22:07;;;;;;;;;4.00;4.00;;;;;;;;5070484;28;45929;-84
2022/07/14 11:24:33;;;;;;;;;3.00;3.00;;;;;;;;5092089;27;45245;-80
2022/07/14 11:27:18;;;;;;;;;4.00;4.00;;;;;;;;5072201;28;45429;-80
2022/07/14 11:29:43;;;;;;;;;3.60;3.60;;;;;;;;5076981;28;45750;-87
2022/07/14 11:32:27;;;;;;;;;2.75;2.75;;;;;;;;5065034;27;47685;-82
2022/07/14 11:37:54;;;;;;;;;2.20;2.00;;;;;;;;5080554;28;45284;-79
2022/07/14 11:40:38;;;;;;;;;5.00;3.00;;;;;;;;5068142;28;46167;-82
2022/07/14 11:43:27;;;;;;;;;3.00;3.00;;;;;;;;5069937;28;45311;-81
2022/07/14 11:45:55;;;;;;;;;3.20;2.80;;;;;;;;5055199;27;45667;-76
2022/07/14 11:48:21;;;;;;;;;4.20;3.00;;;;;;;;5063791;28;45303;-79
2022/07/14 11:50:48;;;;;;;;;3.75;3.75;;;;;;;;5071285;28;46344;-79
2022/07/14 11:53:15;;;;;;;;;2.80;2.80;;;;;;;;5065520;28;46454;-77
2022/07/14 11:55:40;;;;;;;;;3.00;3.00;;;;;;;;5072627;28;45224;-81
2022/07/14 11:58:06;;;;;;;;;4.00;3.00;;;;;;;;5067268;28;45260;-79
2022/07/14 12:00:31;;;;;;;;;2.60;2.20;;;;;;;;5069931;28;45200;-79
2022/07/14 12:02:59;;;;;;;;;2.75;2.75;;;;;;;;5060411;28;46525;-81
2022/07/14 12:05:26;;;;;;;;;3.80;3.00;;;;;;;;5071425;28;45349;-81
2022/07/14 12:07:53;;;;;;;;;3.60;3.60;;;;;;;;5061970;28;45376;-83
2022/07/14 12:10:41;;;;;;;;;2.00;2.00;;;;;;;;5061526;28;45757;-77
2022/07/14 12:13:06;;;;;;;;;1.20;1.20;;;;;;;;5064095;28;47284;-80
2022/07/14 12:15:32;;;;;;;;;2.00;2.00;;;;;;;;5075196;28;45541;-78
2022/07/14 12:18:01;;;;;;;;;3.75;3.75;;;;;;;;5061347;28;45362;-81
2022/07/14 12:20:26;;;;;;;;;2.00;2.00;;;;;;;;5069333;28;45545;-82
2022/07/14 12:22:53;;;;;;;;;3.00;3.00;;;;;;;;5067279;28;48058;-85
2022/07/14 12:25:24;;;;;;;;;2.00;2.00;;;;;;;;5075365;28;45356;-83
2022/07/14 12:27:50;;;;;;;;;3.00;1.60;;;;;;;;5073084;28;45391;-81
2022/07/14 12:30:15;;;;;;;;;3.00;3.00;;;;;;;;5077001;28;45580;-77
2022/07/14 12:32:40;;;;;;;;;3.00;3.00;;;;;;;;5068080;28;46478;-77
2022/07/14 12:35:06;;;;;;;;;1.25;1.25;;;;;;;;5063876;28;45329;-76
2022/07/14 12:37:31;;;;;;;;;2.75;2.00;;;;;;;;5070684;28;45488;-77
2022/07/14 12:39:57;;;;;;;;;2.00;2.00;;;;;;;;5068473;28;45473;-76
2022/07/14 12:42:22;;;;;;;;;2.00;2.00;;;;;;;;5064782;28;45287;-76
2022/07/14 12:45:02;;;;;;;;;0.00;0.00;;;;;;;;5069205;28;45358;-77
2022/07/14 12:47:27;;;;;;;;;1.60;1.60;;;;;;;;5067076;28;45452;-78
2022/07/14 12:49:53;;;;;;;;;2.00;2.00;;;;;;;;5070977;28;46005;-77
2022/07/14 12:52:18;;;;;;;;;3.25;2.00;;;;;;;;5069233;28;46418;-78
2022/07/14 12:54:43;;;;;;;;;3.00;3.00;;;;;;;;5075285;28;45280;-75
2022/07/14 12:57:23;;;;;;;;;2.75;1.75;;;;;;;;5069762;28;45403;-79
2022/07/14 12:59:48;;;;;;;;;3.00;2.00;;;;;;;;5077053;28;45549;-78
2022/07/14 13:02:22;;;;;;;;;2.00;2.00;;;;;;;;5078162;28;46615;-79
2022/07/14 13:05:10;;;;;;;;;3.00;3.00;;;;;;;;5066885;27;45446;-88
2022/07/14 13:07:37;;;;;;;;;3.00;3.00;;;;;;;;5071180;28;45287;-88
2022/07/14 13:10:06;;;;;;;;;3.60;3.00;;;;;;;;5065983;28;45547;-78
2022/07/14 13:12:31;;;;;;;;;4.60;3.80;;;;;;;;5066567;28;47233;-83
2022/07/14 13:14:58;;;;;;;;;4.00;4.00;;;;;;;;5065831;27;45311;-80
2022/07/14 13:17:41;;;;;;;;;7.80;7.80;;;;;;;;5072806;27;45330;-80
2022/07/14 13:20:27;;;;;;;;;14.60;12.20;;;;;;;;5068495;28;45392;-87
2022/07/14 13:22:55;;;;;;;;;13.60;13.60;;;;;;;;5068430;28;45678;-86
2022/07/14 13:25:21;;;;;;;;;12.40;12.20;;;;;;;;5069336;28;45548;-82
2022/07/14 13:27:46;;;;;;;;;19.25;19.25;;;;;;;;5071692;28;45350;-82
2022/07/14 13:30:12;;;;;;;;;17.50;16.50;;;;;;;;5067383;28;45928;-82
2022/07/14 13:32:37;;;;;;;;;24.00;22.25;;;;;;;;5068406;28;46902;-82
2022/07/14 13:35:02;;;;;;;;;18.00;18.00;;;;;;;;5075472;28;45261;-83
2022/07/14 13:37:28;;;;;;;;;24.00;23.00;;;;;;;;5076353;28;45447;-82
2022/07/14 13:39:53;;;;;;;;;15.00;13.50;;;;;;;;5065270;27;45976;-81
2022/07/14 13:42:18;;;;;;;;;20.50;17.00;;;;;;;;5072223;28;45347;-78
2022/07/14 13:44:43;;;;;;;;;13.75;13.00;;;;;;;;5065912;28;45311;-83
2022/07/14 13:47:08;;;;;;;;;13.50;10.75;;;;;;;;5064869;28;45382;-80
2022/07/14 13:52:07;;;;;;;;;8.00;8.00;;;;;;;;5067519;27;45743;-79
2022/07/14 13:52:19;;;;;;;;;7.40;6.40;;;;;;;;5069134;28;45260;-79
2022/07/14 13:54:44;;;;;;;;;9.50;8.50;;;;;;;;5074646;28;45347;-82
2022/07/14 13:57:09;;;;;;;;;8.50;8.50;;;;;;;;5059485;28;45350;-79
2022/07/14 13:59:35;;;;;;;;;8.25;7.00;;;;;;;;5068584;28;45550;-85
2022/07/14 14:02:00;;;;;;;;;6.50;5.50;;;;;;;;5067404;28;45336;-78
2022/07/14 14:04:25;;;;;;;;;6.00;4.50;;;;;;;;5076379;28;45389;-79
2022/07/14 14:06:50;;;;;;;;;7.25;6.00;;;;;;;;5062002;28;45383;-80
2022/07/14 14:09:16;;;;;;;;;8.00;7.00;;;;;;;;5059468;28;45591;-78
2022/07/14 14:11:42;;;;;;;;;6.00;6.00;;;;;;;;5061265;28;45433;-80
2022/07/14 14:14:08;;;;;;;;;6.40;5.60;;;;;;;;5061318;28;45260;-83
2022/07/14 14:16:33;;;;;;;;;6.50;6.50;;;;;;;;5063592;28;45436;-81
2022/07/14 14:18:59;;;;;;;;;7.00;7.00;;;;;;;;5066995;28;45382;-77
2022/07/14 14:21:25;;;;;;;;;2.75;2.75;;;;;;;;5068902;28;45595;-77
2022/07/14 14:23:50;;;;;;;;;6.60;5.20;;;;;;;;5069682;28;45729;-77
2022/07/14 14:26:15;;;;;;;;;4.75;4.75;;;;;;;;5075017;28;45173;-77
2022/07/14 14:28:41;;;;;;;;;5.00;5.00;;;;;;;;5063016;28;45784;-81
2022/07/14 14:31:06;;;;;;;;;7.00;6.75;;;;;;;;5068260;28;45451;-77
2022/07/14 14:33:32;;;;;;;;;6.50;6.50;;;;;;;;5062984;28;45344;-75
2022/07/14 14:35:57;;;;;;;;;7.00;7.00;;;;;;;;5070595;28;45250;-75
2022/07/14 14:38:23;;;;;;;;;6.75;6.75;;;;;;;;5076823;28;46139;-75
2022/07/14 14:40:49;;;;;;;;;8.25;8.25;;;;;;;;5070960;28;45428;-74